createdAt,value
2022-09-13T00:00:55.415Z,78.27
2022-09-13T00:03:25.386Z,78.54
2022-09-13T00:05:53.596Z,78.51
2022-09-13T00:08:21.358Z,78.51
2022-09-13T00:10:50.927Z,77.96
2022-09-13T00:13:19.543Z,78.05
2022-09-13T00:15:49.337Z,78.79
2022-09-13T00:18:17.686Z,79.12
2022-09-13T00:20:45.603Z,79.01
2022-09-13T00:23:13.801Z,79.25
2022-09-13T00:25:41.694Z,78.74
2022-09-13T00:28:11.014Z,78.52
2022-09-13T00:30:39.149Z,78.49
2022-09-13T00:33:06.832Z,78.42
2022-09-13T00:35:35.836Z,78.85
2022-09-13T00:38:03.572Z,78.74
2022-09-13T00:40:31.613Z,78.70
2022-09-13T00:42:59.619Z,78.68
2022-09-13T00:45:29.659Z,78.35
2022-09-13T00:47:59.452Z,78.08
2022-09-13T00:50:32.526Z,78.21
2022-09-13T00:53:02.927Z,78.41
2022-09-13T00:55:33.097Z,78.31
2022-09-13T00:58:04.606Z,78.26
2022-09-13T01:00:34.107Z,78.26
2022-09-13T01:03:04.005Z,78.42
2022-09-13T01:05:34.534Z,78.69
2022-09-13T01:08:02.728Z,78.08
2022-09-13T01:10:31.898Z,77.77
2022-09-13T01:13:04.679Z,77.69
2022-09-13T01:15:33.985Z,77.39
2022-09-13T01:18:01.723Z,77.13
2022-09-13T01:20:41.726Z,76.93
2022-09-13T01:23:45.106Z,77.54
2022-09-13T01:26:36.934Z,78.13
2022-09-13T01:29:29.114Z,78.51
2022-09-13T01:32:03.375Z,78.92
2022-09-13T01:34:38.484Z,78.70
2022-09-13T01:37:15.911Z,78.51
2022-09-13T01:39:55.573Z,78.40
2022-09-13T01:42:30.090Z,78.41
2022-09-13T01:45:06.742Z,77.91
2022-09-13T01:47:41.369Z,77.83
2022-09-13T01:50:14.858Z,78.18
2022-09-13T01:52:49.165Z,77.71
2022-09-13T01:55:24.949Z,77.89
2022-09-13T01:57:55.806Z,78.03
2022-09-13T02:00:23.654Z,78.21
2022-09-13T02:02:55.558Z,78.36
2022-09-13T02:05:29.140Z,78.66
2022-09-13T02:07:59.307Z,78.62
2022-09-13T02:10:30.059Z,78.72
2022-09-13T02:12:59.578Z,78.29
2022-09-13T02:15:29.080Z,78.24
2022-09-13T02:18:06.045Z,77.82
2022-09-13T02:20:37.266Z,77.68
2022-09-13T02:23:09.181Z,78.09
2022-09-13T02:25:38.288Z,78.23
2022-09-13T02:28:11.234Z,78.10
2022-09-13T02:30:41.548Z,78.26
2022-09-13T02:33:12.774Z,78.26
2022-09-13T02:35:45.088Z,78.41
2022-09-13T02:38:16.642Z,77.97
2022-09-13T02:40:47.953Z,77.98
2022-09-13T02:43:19.403Z,77.38
2022-09-13T02:45:49.369Z,77.66
2022-09-13T02:48:23.691Z,77.63
2022-09-13T02:50:58.871Z,77.77
2022-09-13T02:53:30.701Z,77.91
2022-09-13T02:56:04.948Z,78.13
2022-09-13T02:58:36.619Z,78.07
2022-09-13T03:01:04.800Z,78.26
2022-09-13T03:03:34.194Z,78.54
2022-09-13T03:06:01.919Z,78.88
2022-09-13T03:08:30.476Z,79.46
2022-09-13T03:11:04.974Z,79.35
2022-09-13T03:13:42.081Z,79.33
2022-09-13T03:16:21.656Z,79.49
2022-09-13T03:19:02.401Z,79.18
2022-09-13T03:21:42.315Z,78.89
2022-09-13T03:24:16.899Z,79.00
2022-09-13T03:26:51.348Z,79.16
2022-09-13T03:29:31.479Z,78.87
2022-09-13T03:32:07.212Z,78.56
2022-09-13T03:34:44.205Z,78.31
2022-09-13T03:37:17.486Z,78.13
2022-09-13T03:39:50.112Z,78.00
2022-09-13T03:42:23.091Z,78.49
2022-09-13T03:44:52.100Z,78.33
2022-09-13T03:47:21.877Z,78.49
2022-09-13T03:49:52.751Z,78.33
2022-09-13T03:52:20.969Z,78.47
2022-09-13T03:54:49.424Z,78.12
2022-09-13T03:57:18.811Z,78.19
2022-09-13T03:59:48.422Z,78.40
2022-09-13T04:02:17.463Z,78.86
2022-09-13T04:04:46.262Z,79.14
2022-09-13T04:07:16.927Z,78.77
2022-09-13T04:09:45.869Z,78.75
2022-09-13T04:12:14.267Z,79.12
2022-09-13T04:14:42.842Z,79.67
2022-09-13T04:17:11.123Z,79.51
2022-09-13T04:19:39.195Z,79.35
2022-09-13T04:22:07.230Z,79.79
2022-09-13T04:24:37.623Z,80.00
2022-09-13T04:27:05.745Z,80.27
2022-09-13T04:29:34.024Z,80.09
2022-09-13T04:32:02.124Z,79.95
2022-09-13T04:34:29.998Z,80.16
2022-09-13T04:36:58.001Z,80.07
2022-09-13T04:39:25.974Z,80.09
2022-09-13T04:41:55.477Z,80.07
2022-09-13T04:44:24.562Z,80.16
2022-09-13T04:46:52.784Z,80.23
2022-09-13T04:49:22.138Z,80.40
2022-09-13T04:51:51.103Z,80.49
2022-09-13T04:54:19.088Z,80.41
2022-09-13T04:56:47.819Z,80.59
2022-09-13T04:59:17.662Z,80.47
2022-09-13T05:02:47.464Z,80.29
2022-09-13T05:05:15.477Z,80.43
2022-09-13T05:07:43.299Z,80.61
2022-09-13T05:10:12.218Z,80.50
2022-09-13T05:12:41.829Z,80.50
2022-09-13T05:15:12.620Z,80.32
2022-09-13T05:17:40.716Z,80.14
2022-09-13T05:20:09.529Z,80.25
2022-09-13T05:22:37.305Z,80.26
2022-09-13T05:25:08.241Z,80.31
2022-09-13T05:27:36.198Z,80.26
2022-09-13T05:30:04.907Z,80.73
2022-09-13T05:32:34.282Z,80.00
2022-09-13T05:35:01.932Z,80.29
2022-09-13T05:37:30.140Z,80.26
2022-09-13T05:40:11.333Z,80.09
2022-09-13T05:42:40.123Z,79.66
2022-09-13T05:45:09.577Z,79.39
2022-09-13T05:47:39.325Z,79.51
2022-09-13T05:50:10.652Z,79.34
2022-09-13T05:52:39.937Z,79.46
2022-09-13T05:55:08.464Z,79.03
2022-09-13T05:57:37.735Z,79.20
2022-09-13T06:00:06.628Z,78.84
2022-09-13T06:02:34.679Z,78.61
2022-09-13T06:05:05.530Z,78.39
2022-09-13T06:07:33.289Z,78.08
2022-09-13T06:10:01.003Z,77.36
2022-09-13T06:12:28.957Z,77.81
2022-09-13T06:14:56.812Z,77.66
2022-09-13T06:17:24.580Z,77.19
2022-09-13T06:19:52.513Z,75.98
2022-09-13T06:22:21.965Z,76.43
2022-09-13T06:24:50.556Z,76.17
2022-09-13T06:27:18.729Z,74.83
2022-09-13T06:29:48.429Z,74.83
2022-09-13T06:32:17.337Z,74.55
2022-09-13T06:34:45.483Z,73.31
2022-09-13T06:37:14.532Z,73.02
2022-09-13T06:39:44.021Z,71.64
2022-09-13T06:42:11.692Z,71.02
2022-09-13T06:44:39.482Z,69.91
2022-09-13T06:47:07.392Z,69.86
2022-09-13T06:49:35.114Z,68.03
2022-09-13T06:52:03.070Z,68.41
2022-09-13T06:54:33.944Z,68.13
2022-09-13T06:57:04.198Z,67.71
2022-09-13T06:59:32.197Z,67.18
2022-09-13T07:01:59.999Z,65.96
2022-09-13T07:04:31.759Z,64.89
2022-09-13T07:07:00.637Z,62.67
2022-09-13T07:09:28.792Z,62.24
2022-09-13T07:11:58.228Z,62.29
2022-09-13T07:14:29.462Z,59.82
2022-09-13T07:16:57.860Z,60.08
2022-09-13T07:19:27.524Z,60.48
2022-09-13T07:21:56.102Z,60.22
2022-09-13T07:24:24.542Z,59.42
2022-09-13T07:26:52.283Z,60.36
2022-09-13T07:29:22.825Z,59.28
2022-09-13T07:31:54.158Z,60.24
2022-09-13T07:34:23.225Z,60.33
2022-09-13T07:36:52.498Z,59.42
2022-09-13T07:39:23.040Z,58.36
2022-09-13T07:41:51.297Z,58.36
2022-09-13T07:44:19.210Z,58.42
2022-09-13T07:46:47.151Z,57.28
2022-09-13T07:49:20.448Z,58.12
2022-09-13T07:51:51.330Z,57.42
2022-09-13T07:54:20.320Z,57.88
2022-09-13T07:56:50.652Z,56.62
2022-09-13T07:59:19.499Z,56.56
2022-09-13T08:01:48.337Z,55.76
2022-09-13T08:04:19.955Z,54.27
2022-09-13T08:06:47.909Z,53.60
2022-09-13T08:09:16.380Z,54.40
2022-09-13T08:11:45.736Z,54.00
2022-09-13T08:14:15.026Z,54.88
2022-09-13T08:16:42.974Z,55.23
2022-09-13T08:19:13.946Z,54.51
2022-09-13T08:21:43.789Z,54.12
2022-09-13T08:24:15.965Z,54.43
2022-09-13T08:26:44.162Z,55.12
2022-09-13T08:29:12.802Z,54.18
2022-09-13T08:31:41.173Z,52.87
2022-09-13T08:34:10.321Z,53.36
2022-09-13T08:36:37.973Z,51.83
2022-09-13T08:39:07.310Z,51.50
2022-09-13T08:41:52.353Z,50.81
2022-09-13T08:44:26.653Z,51.74
2022-09-13T08:46:56.783Z,49.67
2022-09-13T08:49:27.714Z,50.48
2022-09-13T08:51:57.689Z,50.03
2022-09-13T08:54:27.627Z,51.64
2022-09-13T08:57:00.493Z,51.19
2022-09-13T08:59:34.770Z,51.62
2022-09-13T09:02:14.898Z,52.38
2022-09-13T09:04:47.406Z,52.55
2022-09-13T09:07:18.977Z,52.72
2022-09-13T09:09:52.027Z,53.08
2022-09-13T09:12:26.471Z,53.79
2022-09-13T09:15:00.782Z,54.20
2022-09-13T09:17:31.645Z,54.54
2022-09-13T09:20:08.610Z,54.42
2022-09-13T09:22:37.224Z,54.59
2022-09-13T09:25:07.402Z,53.54
2022-09-13T09:27:35.355Z,52.86
2022-09-13T09:30:03.361Z,52.41
2022-09-13T09:32:53.954Z,53.81
2022-09-13T09:35:32.660Z,53.36
2022-09-13T09:38:20.213Z,53.09
2022-09-13T09:40:49.704Z,53.22
2022-09-13T09:43:21.804Z,52.62
2022-09-13T09:45:57.682Z,52.62
2022-09-13T09:48:29.115Z,52.09
2022-09-13T09:50:59.081Z,51.67
2022-09-13T09:53:33.617Z,52.12
2022-09-13T09:56:15.253Z,51.61
2022-09-13T09:58:45.396Z,52.29
2022-09-13T10:01:21.362Z,51.02
2022-09-13T10:03:55.139Z,50.17
2022-09-13T10:06:25.294Z,48.75
2022-09-13T10:09:01.471Z,50.02
2022-09-13T10:11:56.339Z,50.53
2022-09-13T10:14:33.439Z,50.61
2022-09-13T10:17:19.291Z,50.69
2022-09-13T10:19:59.468Z,51.04
2022-09-13T10:22:27.969Z,51.50
2022-09-13T10:24:57.399Z,50.95
2022-09-13T10:27:39.515Z,52.05
2022-09-13T10:30:28.885Z,52.00
2022-09-13T10:32:57.502Z,52.01
2022-09-13T10:35:25.648Z,52.32
2022-09-13T10:37:53.821Z,50.95
2022-09-13T10:40:27.002Z,49.73
2022-09-13T10:42:58.912Z,51.19
2022-09-13T10:45:27.007Z,49.90
2022-09-13T10:47:56.992Z,50.26
2022-09-13T10:50:27.140Z,51.08
2022-09-13T10:52:55.912Z,50.86
2022-09-13T10:55:35.201Z,49.93
2022-09-13T10:58:19.309Z,49.64
2022-09-13T11:01:22.644Z,49.46
2022-09-13T11:04:32.968Z,49.91
2022-09-13T11:07:10.001Z,50.88
2022-09-13T11:09:42.992Z,49.82
2022-09-13T11:12:18.562Z,49.08
2022-09-13T11:14:58.234Z,49.58
2022-09-13T11:17:35.178Z,50.56
2022-09-13T11:20:18.231Z,50.03
2022-09-13T11:23:13.687Z,51.09
2022-09-13T11:25:53.051Z,50.85
2022-09-13T11:28:29.659Z,51.87
2022-09-13T11:31:08.420Z,51.86
2022-09-13T11:33:45.708Z,52.50
2022-09-13T11:36:31.177Z,52.51
2022-09-13T11:39:05.853Z,53.33
2022-09-13T11:41:40.550Z,52.94
2022-09-13T11:44:30.257Z,53.25
2022-09-13T11:47:06.200Z,52.64
2022-09-13T11:50:03.541Z,53.07
2022-09-13T11:52:39.987Z,53.56
2022-09-13T11:55:18.381Z,53.12
2022-09-13T11:57:48.517Z,52.75
2022-09-13T12:00:21.389Z,53.08
2022-09-13T12:02:57.962Z,53.26
2022-09-13T12:05:28.750Z,52.91
2022-09-13T12:08:00.407Z,53.90
2022-09-13T12:10:31.672Z,54.23
2022-09-13T12:13:01.558Z,53.31
2022-09-13T12:15:35.835Z,53.56
2022-09-13T12:18:09.208Z,53.76
2022-09-13T12:20:39.520Z,53.11
2022-09-13T12:23:13.259Z,53.44
2022-09-13T12:25:48.166Z,53.14
2022-09-13T12:28:20.276Z,51.18
2022-09-13T12:30:52.288Z,50.24
2022-09-13T12:33:21.785Z,50.00
2022-09-13T12:36:00.314Z,48.84
2022-09-13T12:38:52.354Z,50.08
2022-09-13T12:41:23.371Z,49.79
2022-09-13T12:44:33.936Z,48.85
2022-09-13T12:47:41.825Z,49.83
2022-09-13T12:50:42.994Z,50.13
2022-09-13T12:53:36.118Z,50.08
2022-09-13T12:56:05.404Z,49.03
2022-09-13T12:59:01.410Z,48.68
2022-09-13T13:01:31.207Z,48.75
2022-09-13T13:04:03.392Z,49.86
2022-09-13T13:06:35.772Z,49.14
2022-09-13T13:09:06.447Z,50.09
2022-09-13T13:11:45.181Z,49.02
2022-09-13T13:14:30.270Z,49.14
2022-09-13T13:17:32.522Z,48.34
2022-09-13T13:20:00.597Z,48.45
2022-09-13T13:22:54.884Z,48.44
2022-09-13T13:25:37.751Z,48.79
2022-09-13T13:28:14.671Z,48.70
2022-09-13T13:30:52.585Z,47.76
2022-09-13T13:33:23.681Z,47.83
2022-09-13T13:35:52.139Z,48.55
2022-09-13T13:38:49.741Z,48.24
2022-09-13T13:41:43.508Z,49.05
2022-09-13T13:44:44.826Z,49.05
2022-09-13T13:48:04.349Z,49.34
2022-09-13T13:50:35.037Z,49.05
2022-09-13T13:53:23.972Z,49.81
2022-09-13T13:56:09.484Z,50.36
2022-09-13T13:58:47.617Z,51.00
2022-09-13T14:01:20.822Z,50.15
2022-09-13T14:04:14.500Z,50.26
2022-09-13T14:06:50.250Z,50.67
2022-09-13T14:09:33.231Z,51.02
2022-09-13T14:12:15.813Z,51.11
2022-09-13T14:14:54.373Z,51.04
2022-09-13T14:17:55.862Z,51.75
2022-09-13T14:20:25.626Z,52.31
2022-09-13T14:22:53.359Z,52.58
2022-09-13T14:25:26.284Z,53.17
2022-09-13T14:27:58.011Z,53.31
2022-09-13T14:30:27.825Z,54.21
2022-09-13T14:32:58.039Z,54.34
2022-09-13T14:35:30.133Z,54.59
2022-09-13T14:38:12.413Z,54.49
2022-09-13T14:40:41.131Z,55.33
2022-09-13T14:43:24.444Z,54.92
2022-09-13T14:45:55.754Z,54.94
2022-09-13T14:48:27.214Z,55.35
2022-09-13T14:51:12.103Z,55.13
2022-09-13T14:53:41.613Z,55.80
2022-09-13T14:56:14.790Z,55.89
2022-09-13T14:58:46.136Z,56.18
2022-09-13T15:01:15.529Z,56.83
2022-09-13T15:03:44.294Z,56.86
2022-09-13T15:06:24.248Z,57.16
2022-09-13T15:08:53.230Z,57.02
2022-09-13T15:11:33.649Z,57.14
2022-09-13T15:14:26.796Z,57.61
2022-09-13T15:16:57.084Z,57.82
2022-09-13T15:19:33.565Z,58.03
2022-09-13T15:22:16.147Z,57.99
2022-09-13T15:24:47.002Z,58.46
2022-09-13T15:27:21.116Z,57.81
2022-09-13T15:29:57.193Z,58.24
2022-09-13T15:32:31.954Z,58.58
2022-09-13T15:35:01.624Z,58.76
2022-09-13T15:37:35.024Z,58.85
2022-09-13T15:40:13.207Z,59.06
2022-09-13T15:42:41.196Z,59.20
2022-09-13T15:45:15.566Z,59.60
2022-09-13T15:47:46.333Z,59.66
2022-09-13T15:50:21.963Z,59.95
2022-09-13T15:52:49.811Z,59.81
2022-09-13T15:55:17.851Z,59.91
2022-09-13T15:57:46.832Z,59.94
2022-09-13T16:00:21.063Z,60.26
2022-09-13T16:02:50.772Z,60.41
2022-09-13T16:05:19.014Z,60.24
2022-09-13T16:07:47.079Z,60.61
2022-09-13T16:10:19.276Z,60.49
2022-09-13T16:12:47.528Z,61.14
2022-09-13T16:15:15.607Z,61.21
2022-09-13T16:17:45.144Z,61.09
2022-09-13T16:20:15.302Z,61.84
2022-09-13T16:22:43.365Z,61.64
2022-09-13T16:25:14.415Z,61.94
2022-09-13T16:27:44.857Z,62.27
2022-09-13T16:30:16.238Z,62.55
2022-09-13T16:32:45.954Z,62.73
2022-09-13T16:35:15.372Z,62.92
2022-09-13T16:37:44.679Z,63.10
2022-09-13T16:40:17.612Z,63.09
2022-09-13T16:42:45.514Z,63.28
2022-09-13T16:45:13.762Z,63.04
2022-09-13T16:47:42.344Z,63.09
2022-09-13T16:50:54.090Z,62.93
2022-09-13T16:53:23.507Z,63.23
2022-09-13T16:55:53.678Z,63.36
2022-09-13T16:58:31.925Z,63.71
2022-09-13T17:00:59.811Z,64.15
2022-09-13T17:03:28.755Z,64.15
2022-09-13T17:06:02.776Z,64.55
2022-09-13T17:09:28.466Z,65.25
2022-09-13T17:11:54.939Z,66.15
2022-09-13T17:14:25.601Z,67.10
2022-09-13T17:16:55.046Z,67.86
2022-09-13T17:19:26.716Z,68.19
2022-09-13T17:21:57.683Z,68.81
2022-09-13T17:24:29.031Z,68.91
2022-09-13T17:26:57.766Z,69.23
2022-09-13T17:29:31.185Z,69.15
2022-09-13T17:32:00.082Z,69.72
2022-09-13T17:34:30.859Z,69.63
2022-09-13T17:37:00.723Z,70.38
2022-09-13T17:39:32.906Z,70.47
2022-09-13T17:42:02.741Z,70.87
2022-09-13T17:44:31.853Z,71.49
2022-09-13T17:47:02.816Z,72.20
2022-09-13T17:49:32.267Z,72.73
2022-09-13T17:52:08.721Z,73.49
2022-09-13T17:54:40.245Z,73.65
2022-09-13T17:57:12.556Z,73.78
2022-09-13T17:59:41.573Z,74.39
2022-09-13T18:02:12.416Z,74.38
2022-09-13T18:07:45.118Z,73.68
2022-09-13T18:10:49.133Z,73.51
2022-09-13T18:13:27.521Z,73.61
2022-09-13T18:16:02.080Z,73.14
2022-09-13T18:18:32.068Z,73.09
2022-09-13T18:21:03.367Z,72.64
2022-09-13T18:23:32.938Z,72.43
2022-09-13T18:26:15.385Z,71.89
2022-09-13T18:28:47.997Z,71.75
2022-09-13T18:31:37.393Z,71.43
2022-09-13T18:34:12.957Z,71.19
2022-09-13T18:37:02.023Z,70.98
2022-09-13T18:39:33.653Z,71.07
2022-09-13T18:42:09.441Z,71.13
2022-09-13T18:44:41.774Z,71.09
2022-09-13T18:47:14.752Z,70.84
2022-09-13T18:49:43.647Z,71.00
2022-09-13T18:52:14.192Z,70.94
2022-09-13T18:54:44.760Z,70.91
2022-09-13T18:57:21.210Z,70.61
2022-09-13T19:00:23.353Z,70.59
2022-09-13T19:03:11.260Z,70.42
2022-09-13T19:06:07.158Z,70.43
2022-09-13T19:08:47.234Z,70.12
2022-09-13T19:14:48.380Z,70.54
2022-09-13T19:20:15.908Z,70.49
2022-09-13T19:22:48.590Z,70.90
2022-09-13T19:25:16.675Z,71.15
2022-09-13T19:27:44.739Z,70.96
2022-09-13T19:30:19.321Z,71.10
2022-09-13T19:32:47.741Z,70.94
2022-09-13T19:35:23.542Z,70.76
2022-09-13T19:37:51.405Z,70.65
2022-09-13T19:40:19.675Z,70.87
2022-09-13T19:42:48.325Z,70.74
2022-09-13T19:45:17.845Z,70.91
2022-09-13T19:50:38.662Z,70.44
2022-09-13T19:53:07.444Z,70.00
2022-09-13T19:55:35.213Z,70.19
2022-09-13T19:58:03.073Z,70.19
2022-09-13T20:00:35.453Z,70.40
2022-09-13T20:03:03.590Z,70.07
2022-09-13T20:05:33.868Z,70.38
2022-09-13T20:08:02.457Z,70.42
2022-09-13T20:10:31.253Z,69.72
2022-09-13T20:12:59.606Z,69.77
2022-09-13T20:15:32.343Z,69.70
2022-09-13T20:18:01.663Z,69.44
2022-09-13T20:20:29.493Z,69.32
2022-09-13T20:26:57.678Z,69.16
2022-09-13T20:29:25.985Z,69.16
2022-09-13T20:31:55.667Z,69.23
2022-09-13T20:34:25.248Z,69.26
2022-09-13T20:36:53.057Z,69.33
2022-09-13T20:39:21.112Z,69.35
2022-09-13T20:41:50.138Z,69.43
2022-09-13T20:44:18.430Z,69.24
2022-09-13T20:46:48.212Z,69.10
2022-09-13T20:49:16.792Z,68.97
2022-09-13T20:51:46.624Z,68.91
2022-09-13T20:54:14.608Z,69.03
2022-09-13T20:56:43.043Z,69.08
2022-09-13T20:59:11.387Z,69.31
2022-09-13T21:01:39.580Z,69.35
2022-09-13T21:04:07.686Z,69.35
2022-09-13T21:06:39.055Z,69.88
2022-09-13T21:09:17.319Z,70.34
2022-09-13T21:11:45.690Z,70.94
2022-09-13T21:14:14.231Z,70.99
2022-09-13T21:16:42.410Z,71.19
2022-09-13T21:19:11.412Z,71.61
2022-09-13T21:21:41.085Z,71.79
2022-09-13T21:24:13.493Z,72.37
2022-09-13T21:26:42.726Z,72.73
2022-09-13T21:29:11.287Z,73.18
2022-09-13T21:31:39.566Z,75.35
2022-09-13T21:34:09.402Z,77.63
2022-09-13T21:36:37.247Z,79.12
2022-09-13T21:39:05.723Z,79.99
2022-09-13T21:41:35.274Z,80.37
2022-09-13T21:44:03.344Z,81.42
2022-09-13T21:46:33.663Z,81.46
2022-09-13T21:49:06.406Z,82.28
2022-09-13T21:51:36.291Z,81.95
2022-09-13T21:54:06.724Z,83.07
2022-09-13T21:56:38.283Z,83.32
2022-09-13T21:59:08.599Z,83.85
2022-09-13T22:01:38.525Z,84.39
2022-09-13T22:04:07.397Z,84.31
2022-09-13T22:06:35.693Z,84.03
2022-09-13T22:09:06.089Z,84.13
2022-09-13T22:11:38.592Z,84.20
2022-09-13T22:14:07.325Z,84.11
2022-09-13T22:16:37.089Z,84.22
2022-09-13T22:19:09.240Z,84.59
2022-09-13T22:21:38.997Z,85.10
2022-09-13T22:24:07.838Z,85.49
2022-09-13T22:26:39.425Z,85.50
2022-09-13T22:29:07.661Z,85.84
2022-09-13T22:31:37.169Z,85.99
2022-09-13T22:34:05.094Z,85.80
2022-09-13T22:36:33.029Z,86.26
2022-09-13T22:39:00.706Z,86.67
2022-09-13T22:41:29.806Z,86.73
2022-09-13T22:43:59.407Z,86.96
2022-09-13T22:46:29.881Z,87.00
2022-09-13T22:48:57.931Z,87.04
2022-09-13T22:51:25.980Z,87.40
2022-09-13T22:53:54.747Z,87.89
2022-09-13T22:56:24.918Z,87.79
2022-09-13T22:58:55.047Z,87.87
2022-09-13T23:01:25.083Z,87.92
2022-09-13T23:03:53.169Z,88.29
2022-09-13T23:06:22.707Z,88.39
2022-09-13T23:08:51.767Z,88.63
2022-09-13T23:11:22.135Z,89.02
2022-09-13T23:13:51.841Z,89.20
2022-09-13T23:16:21.951Z,89.14
2022-09-13T23:18:51.693Z,88.95
2022-09-13T23:21:20.091Z,89.23
2022-09-13T23:23:47.871Z,89.27
2022-09-13T23:26:18.916Z,89.34
2022-09-13T23:28:48.836Z,89.18
2022-09-13T23:31:17.967Z,89.18
2022-09-13T23:33:46.774Z,89.18
2022-09-13T23:36:25.386Z,89.42
2022-09-13T23:38:54.912Z,89.25
2022-09-13T23:41:23.365Z,89.12
2022-09-13T23:43:51.339Z,89.04
2022-09-13T23:46:19.789Z,88.85
2022-09-13T23:48:47.511Z,88.86
2022-09-13T23:51:18.823Z,88.84
2022-09-13T23:53:47.106Z,88.72
2022-09-13T23:56:16.707Z,88.57
2022-09-13T23:58:44.556Z,88.56
